Time;durP1;ratioP1;P1;durP2;ratioP2;P2;SDS_P1;SDS_P2;PMS_P1;PMS_P2;Temp;Humidity;BMP_temperature;BMP_pressure;BME280_temperature;BME280_humidity;BME280_pressure;Samples;Min_cycle;Max_cycle;Signal;HPM_P1;HPM_P2
2022/09/23 00:00:34;;;;;;;5.45;2.30;;;13.60;52.70;;;;;;4977720;28;20514;-47
2022/09/23 00:03:02;;;;;;;3.53;1.83;;;13.50;52.60;;;;;;4982656;28;20058;-48
2022/09/23 00:05:30;;;;;;;3.80;2.13;;;13.50;53.10;;;;;;4981625;28;20410;-45
2022/09/23 00:07:58;;;;;;;2.45;1.77;;;13.50;52.70;;;;;;4982814;28;20069;-44
2022/09/23 00:10:27;;;;;;;3.90;2.35;;;13.50;52.70;;;;;;4983315;28;20699;-48
2022/09/23 00:12:55;;;;;;;5.30;2.65;;;13.50;52.70;;;;;;4987959;28;20448;-47
2022/09/23 00:15:24;;;;;;;4.35;2.00;;;13.50;52.80;;;;;;4982675;28;20379;-44
2022/09/23 00:17:52;;;;;;;4.78;2.35;;;13.50;52.80;;;;;;4986492;28;20058;-46
2022/09/23 00:20:20;;;;;;;3.95;1.90;;;13.50;52.80;;;;;;4982939;28;20054;-49
2022/09/23 00:22:47;;;;;;;1.73;1.60;;;13.50;52.80;;;;;;4985127;28;20065;-49
2022/09/23 00:25:14;;;;;;;3.65;1.92;;;13.50;52.90;;;;;;4981649;28;21291;-50
2022/09/23 00:27:41;;;;;;;4.28;2.25;;;13.50;52.90;;;;;;4984211;28;20063;-48
2022/09/23 00:30:10;;;;;;;3.58;2.05;;;13.40;52.90;;;;;;4982982;28;20050;-50
2022/09/23 00:32:39;;;;;;;3.35;1.90;;;13.50;52.90;;;;;;4985666;28;20077;-46
2022/09/23 00:35:09;;;;;;;2.45;1.92;;;13.40;52.90;;;;;;4982406;28;20054;-49
2022/09/23 00:37:36;;;;;;;2.78;1.80;;;13.40;52.90;;;;;;4985008;28;20053;-48
2022/09/23 00:40:04;;;;;;;3.80;1.85;;;13.40;52.90;;;;;;4982884;28;20061;-47
2022/09/23 00:42:31;;;;;;;5.30;2.17;;;13.40;52.90;;;;;;4985488;28;20058;-45
2022/09/23 00:45:00;;;;;;;3.13;2.05;;;13.40;52.90;;;;;;4982581;28;20053;-48
2022/09/23 00:47:32;;;;;;;3.53;2.13;;;13.40;52.90;;;;;;4984096;28;20085;-47
2022/09/23 00:50:05;;;;;;;3.85;2.13;;;13.40;53.00;;;;;;4984861;28;20050;-45
2022/09/23 00:52:33;;;;;;;4.65;1.98;;;13.40;53.00;;;;;;4985488;28;20054;-47
2022/09/23 00:55:04;;;;;;;3.45;2.13;;;13.40;53.00;;;;;;4982108;28;20054;-51
2022/09/23 00:57:32;;;;;;;4.20;1.95;;;13.40;52.90;;;;;;4983807;28;20046;-47
2022/09/23 00:59:59;;;;;;;3.60;1.90;;;13.40;53.00;;;;;;4981917;28;20050;-48
2022/09/23 01:02:27;;;;;;;2.58;1.30;;;13.40;53.00;;;;;;4984949;28;20058;-58
2022/09/23 01:04:55;;;;;;;5.07;2.10;;;13.40;53.00;;;;;;4982366;28;20406;-52
2022/09/23 01:07:22;;;;;;;4.75;2.00;;;13.40;53.10;;;;;;4984763;28;20058;-57
2022/09/23 01:09:51;;;;;;;6.40;1.70;;;13.30;53.00;;;;;;4983241;28;20100;-57
2022/09/23 01:12:34;;;;;;;3.83;1.60;;;13.40;53.00;;;;;;4984793;28;20061;-57
2022/09/23 01:15:10;;;;;;;3.33;1.90;;;13.40;53.10;;;;;;4982568;28;20050;-58
2022/09/23 01:17:46;;;;;;;3.10;2.28;;;13.40;53.10;;;;;;4984749;28;20061;-58
2022/09/23 01:20:48;;;;;;;5.75;2.20;;;13.30;53.00;;;;;;4947656;28;1053234;-57
2022/09/23 01:23:44;;;;;;;3.92;1.75;;;13.30;53.10;;;;;;4985630;28;20058;-57
2022/09/23 01:26:32;;;;;;;4.18;2.03;;;13.40;53.10;;;;;;4984143;28;20150;-57
2022/09/23 01:29:24;;;;;;;4.10;1.90;;;13.40;53.10;;;;;;4982543;28;20061;-58
2022/09/23 01:32:01;;;;;;;3.20;1.80;;;13.40;53.10;;;;;;4984094;28;20054;-55
2022/09/23 01:34:36;;;;;;;2.60;1.60;;;13.40;53.10;;;;;;4984932;28;20058;-57
2022/09/23 01:37:10;;;;;;;4.30;1.73;;;13.40;53.10;;;;;;4982071;28;20050;-58
2022/09/23 01:39:40;;;;;;;5.88;2.35;;;13.30;53.10;;;;;;4980678;28;20047;-57
2022/09/23 01:42:17;;;;;;;3.47;1.85;;;13.30;53.10;;;;;;4985102;28;20050;-55
2022/09/23 01:44:49;;;;;;;4.93;1.83;;;13.30;53.20;;;;;;4982179;28;20058;-58
2022/09/23 01:47:22;;;;;;;4.13;1.83;;;13.30;53.20;;;;;;4983014;28;20062;-57
2022/09/23 01:49:54;;;;;;;4.35;2.13;;;13.30;53.20;;;;;;4984509;28;20058;-51
2022/09/23 01:52:28;;;;;;;3.05;2.05;;;13.30;53.30;;;;;;4985967;28;20495;-58
2022/09/23 01:55:01;;;;;;;4.68;1.88;;;13.30;53.30;;;;;;4983794;28;20054;-57
2022/09/23 01:57:34;;;;;;;3.78;1.98;;;13.30;53.30;;;;;;4983874;28;20058;-58
2022/09/23 02:06:53;;;;;;;3.25;2.08;;;13.30;53.30;;;;;;4987259;28;20410;-57
2022/09/23 02:09:24;;;;;;;2.33;1.73;;;13.30;53.30;;;;;;4984041;28;20062;-57
2022/09/23 02:11:54;;;;;;;3.20;1.90;;;13.30;53.30;;;;;;4985801;28;20053;-57
2022/09/23 02:14:26;;;;;;;3.13;1.65;;;13.30;53.30;;;;;;4982468;28;20066;-57
2022/09/23 02:16:56;;;;;;;3.17;2.03;;;13.30;53.40;;;;;;4983600;28;20062;-58
2022/09/23 02:19:28;;;;;;;4.65;1.85;;;13.30;53.40;;;;;;4982160;28;20070;-53
2022/09/23 02:22:03;;;;;;;3.30;2.00;;;13.20;53.30;;;;;;4984170;28;20062;-57
2022/09/23 02:24:33;;;;;;;3.80;2.05;;;13.20;53.40;;;;;;4984154;28;20049;-56
2022/09/23 02:27:14;;;;;;;2.22;1.60;;;13.20;53.40;;;;;;4984110;28;20054;-50
2022/09/23 02:29:51;;;;;;;7.18;2.88;;;13.20;53.40;;;;;;4982683;28;20050;-57
2022/09/23 02:32:22;;;;;;;2.65;1.77;;;13.20;53.40;;;;;;4982647;28;20058;-57
2022/09/23 02:34:58;;;;;;;4.00;2.00;;;13.20;53.40;;;;;;4984750;28;20054;-57
2022/09/23 02:37:32;;;;;;;8.60;2.63;;;13.20;53.50;;;;;;4985299;28;20486;-58
2022/09/23 02:40:04;;;;;;;2.78;1.95;;;13.20;53.50;;;;;;4982858;28;20058;-58
2022/09/23 02:42:39;;;;;;;3.38;1.90;;;13.20;53.50;;;;;;4983050;28;20054;-57
2022/09/23 02:45:07;;;;;;;4.40;2.15;;;13.20;53.50;;;;;;4979760;28;20069;-56
2022/09/23 02:47:38;;;;;;;3.88;2.20;;;13.10;53.50;;;;;;4985339;28;20058;-58
2022/09/23 02:50:06;;;;;;;3.95;2.15;;;13.10;53.40;;;;;;4983744;28;20412;-52
2022/09/23 02:52:35;;;;;;;3.90;2.45;;;13.10;53.40;;;;;;4983978;28;20054;-57
2022/09/23 02:55:03;;;;;;;5.93;2.30;;;13.10;53.50;;;;;;4981145;28;20061;-56
2022/09/23 02:57:30;;;;;;;4.85;2.40;;;13.00;53.40;;;;;;4984260;28;20485;-57
2022/09/23 02:59:58;;;;;;;5.82;2.40;;;13.00;53.50;;;;;;4980813;28;20054;-47
2022/09/23 03:02:54;;;;;;;4.63;2.40;;;13.00;53.50;;;;;;4981949;28;20062;-47
2022/09/23 03:05:29;;;;;;;2.95;2.00;;;13.00;53.60;;;;;;4982903;28;20050;-47
2022/09/23 03:08:04;;;;;;;;;;;13.00;53.60;;;;;;4984684;28;20050;-45
2022/09/23 03:10:37;;;;;;;3.28;2.03;;;13.00;53.60;;;;;;4982856;28;20289;-48
2022/09/23 03:13:14;;;;;;;3.43;2.00;;;13.00;53.40;;;;;;4983389;28;20062;-46
2022/09/23 03:15:52;;;;;;;6.88;2.28;;;13.00;53.40;;;;;;4980041;28;20410;-47
2022/09/23 03:18:24;;;;;;;4.13;2.20;;;13.00;53.50;;;;;;4982742;28;20050;-46
2022/09/23 03:21:44;;;;;;;5.80;2.47;;;12.90;53.50;;;;;;4978449;28;20050;-50
2022/09/23 03:24:14;;;;;;;4.72;2.05;;;12.90;53.60;;;;;;4983255;28;20057;-49
2022/09/23 03:26:46;;;;;;;3.60;2.10;;;12.90;53.60;;;;;;4981736;28;20409;-46
2022/09/23 03:29:15;;;;;;;4.63;2.53;;;12.90;53.60;;;;;;4980882;28;20050;-49
2022/09/23 03:31:42;;;;;;;3.67;2.03;;;12.90;53.60;;;;;;4982769;28;20062;-44
2022/09/23 03:34:15;;;;;;;4.20;2.08;;;12.80;53.60;;;;;;4982252;28;20062;-46
2022/09/23 03:36:52;;;;;;;3.25;2.17;;;12.80;53.70;;;;;;4981845;28;20054;-47
2022/09/23 03:39:36;;;;;;;4.03;2.60;;;12.80;53.70;;;;;;4979187;28;20054;-48
2022/09/23 03:42:15;;;;;;;3.60;2.17;;;12.80;53.80;;;;;;4980802;28;20061;-48
2022/09/23 03:44:44;;;;;;;7.20;2.53;;;12.80;53.70;;;;;;4979522;28;20047;-43
2022/09/23 03:47:13;;;;;;;2.75;1.92;;;12.70;53.70;;;;;;4975029;28;20054;-49
2022/09/23 03:49:42;;;;;;;3.65;2.10;;;12.80;53.70;;;;;;4979726;28;21326;-45
2022/09/23 03:52:09;;;;;;;8.98;2.47;;;12.70;53.70;;;;;;4981300;28;20061;-48
2022/09/23 03:54:38;;;;;;;3.20;2.10;;;12.70;53.70;;;;;;4980992;28;20134;-45
2022/09/23 03:57:06;;;;;;;4.30;2.35;;;12.70;53.80;;;;;;4981725;28;20140;-51
2022/09/23 03:59:33;;;;;;;4.20;2.10;;;12.70;53.80;;;;;;4960666;28;20050;-49
2022/09/23 04:02:01;;;;;;;2.90;2.30;;;12.70;53.80;;;;;;4978108;28;20077;-47
2022/09/23 04:04:32;;;;;;;4.97;2.20;;;12.60;54.30;;;;;;4979781;28;20383;-47
2022/09/23 04:07:00;;;;;;;6.82;2.28;;;12.70;53.90;;;;;;4977918;28;20054;-48
2022/09/23 04:09:27;;;;;;;2.90;2.25;;;12.60;53.90;;;;;;4978770;28;20046;-49
2022/09/23 04:11:56;;;;;;;4.68;2.80;;;12.60;53.90;;;;;;4979000;28;20062;-48
2022/09/23 04:14:23;;;;;;;9.52;3.95;;;12.60;53.90;;;;;;4980252;28;20409;-50
2022/09/23 04:16:51;;;;;;;5.00;2.65;;;12.60;53.90;;;;;;4977798;28;20061;-53
2022/09/23 04:19:19;;;;;;;4.93;2.20;;;12.60;54.00;;;;;;4982424;28;20058;-47
2022/09/23 04:21:46;;;;;;;4.47;2.08;;;12.60;54.00;;;;;;4982669;28;20057;-47
2022/09/23 04:24:14;;;;;;;4.82;2.75;;;12.60;54.00;;;;;;4982810;28;20502;-49
2022/09/23 04:26:42;;;;;;;2.65;1.70;;;12.60;54.00;;;;;;4980744;28;20050;-47
2022/09/23 04:29:10;;;;;;;5.75;2.58;;;12.60;54.00;;;;;;4980231;28;20065;-47
2022/09/23 04:31:38;;;;;;;4.05;2.25;;;12.60;54.00;;;;;;4981713;28;20062;-46
2022/09/23 04:34:05;;;;;;;3.40;1.90;;;12.50;54.00;;;;;;4982415;28;20042;-47
2022/09/23 04:36:33;;;;;;;4.28;2.80;;;12.50;54.00;;;;;;4983554;28;20054;-47
2022/09/23 04:39:01;;;;;;;3.50;2.30;;;12.50;53.90;;;;;;4981981;28;20061;-47
2022/09/23 04:41:28;;;;;;;4.78;2.40;;;12.50;54.00;;;;;;4981821;28;21244;-50
2022/09/23 04:43:56;;;;;;;4.32;2.45;;;12.50;54.00;;;;;;4981926;28;20069;-50
2022/09/23 04:46:25;;;;;;;3.28;2.15;;;12.50;54.00;;;;;;4982649;28;20058;-46
2022/09/23 04:48:52;;;;;;;4.25;2.70;;;12.50;54.10;;;;;;4982422;28;20055;-44
2022/09/23 04:51:21;;;;;;;3.85;2.42;;;12.50;54.10;;;;;;4980955;28;20058;-49
2022/09/23 04:53:51;;;;;;;2.60;1.88;;;12.50;54.10;;;;;;4982355;28;20062;-46
2022/09/23 04:56:20;;;;;;;2.97;1.98;;;12.50;54.10;;;;;;4985418;28;20510;-46
2022/09/23 04:58:48;;;;;;;6.25;2.80;;;12.50;54.10;;;;;;4985160;28;21072;-46
2022/09/23 05:01:17;;;;;;;8.25;4.20;;;12.40;54.00;;;;;;4983743;28;20054;-49
2022/09/23 05:03:47;;;;;;;10.23;5.38;;;12.40;54.00;;;;;;4984147;28;20065;-44
2022/09/23 05:06:14;;;;;;;7.85;3.72;;;12.40;54.00;;;;;;4983457;28;20061;-49
2022/09/23 05:08:46;;;;;;;4.93;3.05;;;12.40;54.10;;;;;;4982458;28;20077;-45
2022/09/23 05:11:13;;;;;;;6.80;2.95;;;12.40;54.10;;;;;;4986458;28;20490;-46
2022/09/23 05:13:40;;;;;;;7.10;2.75;;;12.40;54.00;;;;;;4985066;28;20093;-50
2022/09/23 05:16:10;;;;;;;5.50;2.45;;;12.30;54.00;;;;;;4986264;28;20054;-47
2022/09/23 05:18:41;;;;;;;4.40;2.50;;;12.30;54.10;;;;;;4985243;28;20058;-49
2022/09/23 05:21:10;;;;;;;5.60;2.28;;;12.30;54.10;;;;;;4985587;28;20081;-51
2022/09/23 05:23:39;;;;;;;6.60;2.63;;;12.30;54.20;;;;;;4985765;28;20054;-46
2022/09/23 05:26:08;;;;;;;3.35;2.20;;;12.30;54.10;;;;;;4986271;28;20050;-48
2022/09/23 05:28:38;;;;;;;3.45;2.30;;;12.30;54.20;;;;;;4985343;28;20054;-49
2022/09/23 05:31:07;;;;;;;2.97;2.30;;;12.20;54.20;;;;;;4986344;28;20056;-51
2022/09/23 05:33:35;;;;;;;4.20;2.20;;;12.30;54.20;;;;;;4985555;28;20872;-48
2022/09/23 05:36:03;;;;;;;5.97;2.45;;;12.20;54.30;;;;;;4984844;28;20081;-47
2022/09/23 05:38:32;;;;;;;4.68;2.63;;;12.20;54.80;;;;;;4985525;28;20058;-49
2022/09/23 05:41:02;;;;;;;4.05;2.30;;;12.20;54.30;;;;;;4982097;28;20069;-46
2022/09/23 05:43:29;;;;;;;3.97;2.40;;;12.20;54.40;;;;;;4980276;28;20398;-47
2022/09/23 05:46:01;;;;;;;4.07;2.45;;;12.20;54.60;;;;;;4976682;28;20058;-45
2022/09/23 05:48:30;;;;;;;4.53;2.80;;;12.20;54.50;;;;;;4983356;28;20057;-48
2022/09/23 05:50:59;;;;;;;3.50;2.17;;;12.20;54.50;;;;;;4984175;28;20050;-47
2022/09/23 05:53:28;;;;;;;3.42;2.22;;;12.20;54.50;;;;;;4980227;28;20513;-46
2022/09/23 05:55:56;;;;;;;6.97;3.95;;;12.20;54.50;;;;;;4980605;28;20411;-47
2022/09/23 05:58:24;;;;;;;6.43;2.88;;;12.20;54.50;;;;;;4981261;28;20062;-48
2022/09/23 06:00:52;;;;;;;5.05;2.67;;;12.20;54.50;;;;;;4981229;28;20065;-51
2022/09/23 06:06:42;;;;;;;6.07;2.35;;;12.20;54.60;;;;;;4983874;28;20041;-49
2022/09/23 06:09:13;;;;;;;4.70;2.45;;;12.20;54.50;;;;;;4983897;28;20512;-47
2022/09/23 06:11:42;;;;;;;4.07;2.60;;;12.20;54.60;;;;;;4982973;28;20062;-48
2022/09/23 06:14:12;;;;;;;5.25;2.72;;;12.20;54.60;;;;;;4980918;28;20062;-50
2022/09/23 06:16:39;;;;;;;5.50;2.78;;;12.20;54.70;;;;;;4983030;28;20050;-49
2022/09/23 06:19:07;;;;;;;4.18;2.40;;;12.20;54.70;;;;;;4983226;28;20530;-48
2022/09/23 06:21:35;;;;;;;10.77;3.60;;;12.20;54.70;;;;;;4985018;28;20054;-48
2022/09/23 06:24:03;;;;;;;4.18;2.50;;;12.30;54.80;;;;;;4982955;28;20059;-50
2022/09/23 06:26:32;;;;;;;8.15;2.65;;;12.30;54.80;;;;;;4983634;28;20066;-49
2022/09/23 06:29:01;;;;;;;5.70;2.22;;;12.30;54.80;;;;;;4982974;28;20062;-48
2022/09/23 06:31:29;;;;;;;3.80;2.15;;;12.30;55.40;;;;;;4983947;28;20058;-50
2022/09/23 06:33:56;;;;;;;6.85;2.65;;;12.30;54.90;;;;;;4984441;28;20058;-45
2022/09/23 06:36:23;;;;;;;5.68;2.47;;;12.40;55.00;;;;;;4982306;28;20054;-48
2022/09/23 06:38:50;;;;;;;8.23;3.08;;;12.40;55.00;;;;;;4981765;28;20068;-49
2022/09/23 06:41:19;;;;;;;5.75;2.38;;;12.40;55.10;;;;;;4982833;28;20058;-46
2022/09/23 06:43:47;;;;;;;10.50;5.72;;;12.40;55.00;;;;;;4980719;28;20081;-47
2022/09/23 06:46:16;;;;;;;9.68;4.10;;;12.40;55.10;;;;;;4978746;28;20043;-46
2022/09/23 06:48:44;;;;;;;6.30;3.08;;;12.50;55.20;;;;;;4983156;28;20050;-43
2022/09/23 06:51:17;;;;;;;4.72;2.85;;;12.50;55.20;;;;;;4984507;28;20525;-45
2022/09/23 06:53:46;;;;;;;4.78;2.20;;;12.50;55.20;;;;;;4983901;28;20050;-50
2022/09/23 06:56:13;;;;;;;4.15;2.17;;;12.60;55.20;;;;;;4980975;28;20077;-46
2022/09/23 06:58:41;;;;;;;3.65;2.25;;;12.60;55.20;;;;;;4981621;28;20054;-47
2022/09/23 07:01:11;;;;;;;4.65;2.65;;;12.70;55.30;;;;;;4980204;28;20058;-50
2022/09/23 07:03:40;;;;;;;6.93;2.95;;;12.70;55.30;;;;;;4983232;28;20062;-46
2022/09/23 07:06:07;;;;;;;3.40;2.20;;;12.70;55.30;;;;;;4979119;28;20050;-49
2022/09/23 07:08:36;;;;;;;5.65;2.30;;;12.80;55.30;;;;;;4982183;28;20061;-46
2022/09/23 07:11:05;;;;;;;3.65;2.42;;;12.80;55.40;;;;;;4983245;28;20054;-46
2022/09/23 07:13:33;;;;;;;3.97;2.20;;;12.90;55.40;;;;;;4980813;28;20057;-48
2022/09/23 07:16:01;;;;;;;4.07;2.63;;;12.90;55.40;;;;;;4981229;28;20062;-47
2022/09/23 07:18:31;;;;;;;5.68;2.40;;;12.90;55.30;;;;;;4977914;28;20058;-49
2022/09/23 07:21:05;;;;;;;5.65;2.60;;;13.00;55.40;;;;;;4979878;28;20054;-49
2022/09/23 07:23:33;;;;;;;5.03;2.85;;;13.00;55.50;;;;;;4981940;28;20438;-47
2022/09/23 07:26:00;;;;;;;7.90;2.97;;;13.10;55.30;;;;;;4979106;28;20061;-46
2022/09/23 07:28:28;;;;;;;7.03;2.67;;;13.10;55.30;;;;;;4979662;28;20054;-44
2022/09/23 07:30:55;;;;;;;8.23;2.63;;;13.10;55.30;;;;;;4981323;28;20062;-46
2022/09/23 07:33:23;;;;;;;7.45;2.55;;;13.20;55.30;;;;;;4980718;28;20408;-48
2022/09/23 07:35:50;;;;;;;4.93;2.75;;;13.20;55.40;;;;;;4982730;28;20058;-47
2022/09/23 07:38:18;;;;;;;4.68;2.38;;;13.20;55.40;;;;;;4981987;28;20503;-45
2022/09/23 07:40:45;;;;;;;4.85;3.00;;;13.30;55.40;;;;;;4981680;28;20065;-49
2022/09/23 07:43:13;;;;;;;5.53;2.25;;;13.30;55.40;;;;;;4979919;28;20506;-46
2022/09/23 07:45:42;;;;;;;6.15;2.47;;;13.40;55.50;;;;;;4977098;28;20062;-45
2022/09/23 07:48:11;;;;;;;4.82;2.55;;;13.40;55.50;;;;;;4983268;28;20058;-48
2022/09/23 07:50:39;;;;;;;9.25;2.78;;;13.50;55.60;;;;;;4983234;28;20046;-47
2022/09/23 07:53:07;;;;;;;7.00;2.47;;;13.50;55.70;;;;;;4982850;28;20054;-49
2022/09/23 07:55:36;;;;;;;5.93;2.60;;;13.60;55.70;;;;;;4980328;28;20065;-47
2022/09/23 07:58:03;;;;;;;10.63;2.85;;;13.60;55.80;;;;;;4983187;28;20062;-51
2022/09/23 08:00:30;;;;;;;8.00;3.10;;;13.70;55.80;;;;;;4980395;28;20058;-46
2022/09/23 08:02:57;;;;;;;3.70;2.38;;;13.70;55.80;;;;;;4979808;28;20050;-47
2022/09/23 08:05:26;;;;;;;8.05;2.53;;;13.80;55.90;;;;;;4981152;28;20065;-49
2022/09/23 08:07:53;;;;;;;5.68;2.67;;;13.80;55.90;;;;;;4983199;28;20062;-48
2022/09/23 08:10:20;;;;;;;5.57;2.47;;;13.90;55.90;;;;;;4982686;28;20062;-50
2022/09/23 08:12:48;;;;;;;4.22;2.58;;;14.00;56.00;;;;;;4981503;28;20062;-47
2022/09/23 08:15:16;;;;;;;3.42;2.35;;;14.10;56.10;;;;;;4979424;28;20062;-44
2022/09/23 08:17:45;;;;;;;4.40;2.28;;;14.10;56.00;;;;;;4982442;28;20062;-46
2022/09/23 08:20:42;;;;;;;10.15;2.90;;;14.20;56.10;;;;;;4981316;28;20509;-49
2022/09/23 08:22:59;;;;;;;5.05;2.33;;;14.30;56.20;;;;;;4981127;28;20066;-48
2022/09/23 08:25:27;;;;;;;4.53;2.33;;;14.40;56.30;;;;;;4979203;28;20438;-48
2022/09/23 08:27:55;;;;;;;3.13;2.30;;;14.40;56.40;;;;;;4975535;28;20058;-51
2022/09/23 08:30:22;;;;;;;3.38;2.22;;;14.50;56.20;;;;;;4979332;28;20399;-49
2022/09/23 08:32:51;;;;;;;4.75;2.20;;;14.60;56.10;;;;;;4985069;28;20054;-50
2022/09/23 08:35:19;;;;;;;2.97;2.10;;;14.70;56.00;;;;;;4981254;28;20525;-48
2022/09/23 08:37:46;;;;;;;3.83;2.25;;;14.80;55.80;;;;;;4983041;28;20081;-49
2022/09/23 08:40:13;;;;;;;3.67;2.88;;;14.90;55.70;;;;;;4983510;28;20054;-47
2022/09/23 08:42:43;;;;;;;3.17;2.10;;;15.00;55.60;;;;;;4985999;28;20069;-47
2022/09/23 08:45:17;;;;;;;5.20;2.08;;;15.00;55.50;;;;;;4983350;28;20058;-50
2022/09/23 08:47:49;;;;;;;5.30;2.30;;;15.10;55.40;;;;;;4982934;28;20076;-49
2022/09/23 08:50:19;;;;;;;3.17;1.73;;;15.20;55.40;;;;;;4985019;28;21288;-45
2022/09/23 08:52:51;;;;;;;3.08;1.70;;;15.30;55.40;;;;;;4986259;28;20065;-49
2022/09/23 08:55:20;;;;;;;4.95;2.50;;;15.40;55.30;;;;;;4982204;28;20055;-46
2022/09/23 08:58:02;;;;;;;1.90;1.50;;;15.50;55.20;;;;;;4985028;28;20058;-48
2022/09/23 09:00:36;;;;;;;3.88;2.03;;;15.60;55.20;;;;;;4980874;28;20065;-49
2022/09/23 09:03:06;;;;;;;;;;;15.60;55.10;;;;;;4986420;28;20054;-48
2022/09/23 09:05:34;;;;;;;5.78;1.90;;;15.80;55.10;;;;;;4984635;28;19922;-51
2022/09/23 09:08:03;;;;;;;4.30;1.92;;;15.80;54.80;;;;;;4985797;28;20050;-48
2022/09/23 09:10:40;;;;;;;4.13;2.00;;;15.90;54.70;;;;;;4984329;28;20059;-48
2022/09/23 09:13:15;;;;;;;4.03;2.05;;;16.00;54.60;;;;;;4985190;28;20059;-46
2022/09/23 09:15:52;;;;;;;2.50;1.60;;;16.10;54.50;;;;;;4982481;28;20054;-48
2022/09/23 09:18:20;;;;;;;3.42;1.90;;;16.10;54.80;;;;;;4983073;28;20491;-49
2022/09/23 09:20:56;;;;;;;4.07;2.08;;;16.20;54.30;;;;;;4982353;28;20050;-46
2022/09/23 09:23:27;;;;;;;3.80;1.67;;;16.20;54.10;;;;;;4984929;28;20063;-47
2022/09/23 09:25:57;;;;;;;3.00;2.10;;;16.30;54.60;;;;;;4983719;28;20081;-47
2022/09/23 09:28:30;;;;;;;4.97;1.80;;;16.40;54.00;;;;;;4982328;28;20054;-50
2022/09/23 09:31:01;;;;;;;3.78;1.67;;;16.40;53.80;;;;;;4976891;28;20061;-48
2022/09/23 09:33:34;;;;;;;4.78;2.28;;;16.40;53.70;;;;;;4983246;28;20057;-49
2022/09/23 09:36:14;;;;;;;3.27;1.80;;;16.50;53.50;;;;;;4980692;28;20058;-50
2022/09/23 09:38:42;;;;;;;2.88;1.67;;;16.50;53.20;;;;;;4980370;28;20054;-49
2022/09/23 09:41:14;;;;;;;4.00;1.70;;;16.60;53.20;;;;;;4983753;28;20391;-51
2022/09/23 09:43:47;;;;;;;5.05;1.70;;;16.70;53.00;;;;;;4979891;28;20066;-51
2022/09/23 09:46:32;;;;;;;3.13;1.60;;;16.70;53.00;;;;;;4981216;28;20050;-49
2022/09/23 09:49:04;;;;;;;4.35;1.60;;;16.80;52.90;;;;;;4980906;28;20058;-49
2022/09/23 09:51:31;;;;;;;3.42;2.00;;;16.80;53.00;;;;;;4981721;28;20054;-47
2022/09/23 09:54:16;;;;;;;2.58;1.45;;;16.90;52.90;;;;;;4983567;28;20061;-49
2022/09/23 09:56:44;;;;;;;5.35;1.90;;;16.90;52.70;;;;;;4982736;28;20496;-47
2022/09/23 09:59:21;;;;;;;4.10;1.70;;;17.00;52.70;;;;;;4982412;28;20050;-48
2022/09/23 10:02:10;;;;;;;2.85;1.60;;;17.00;52.90;;;;;;4984456;28;20058;-49
2022/09/23 10:04:38;;;;;;;2.25;1.58;;;17.10;52.80;;;;;;4981402;28;20061;-45
2022/09/23 10:07:08;;;;;;;4.63;1.70;;;17.10;52.70;;;;;;4980853;28;20054;-53
2022/09/23 10:09:37;;;;;;;3.00;1.65;;;17.10;52.70;;;;;;4983016;28;20057;-50
2022/09/23 10:12:14;;;;;;;2.45;1.52;;;17.20;52.80;;;;;;4978992;28;20050;-50
2022/09/23 10:14:41;;;;;;;2.63;1.52;;;17.20;52.50;;;;;;4977623;28;20054;-47
2022/09/23 10:17:17;;;;;;;2.80;1.70;;;17.30;52.60;;;;;;4982468;28;20505;-47
2022/09/23 10:19:48;;;;;;;3.30;2.08;;;17.30;52.50;;;;;;4981328;28;20054;-51
2022/09/23 10:22:25;;;;;;;2.75;1.80;;;17.30;52.70;;;;;;4984150;28;20054;-48
2022/09/23 10:24:54;;;;;;;2.13;1.70;;;17.40;52.50;;;;;;4981311;28;20058;-48
2022/09/23 10:27:31;;;;;;;3.97;1.95;;;17.50;52.40;;;;;;4983544;28;20066;-49
2022/09/23 10:30:00;;;;;;;3.35;1.65;;;17.50;52.20;;;;;;4983102;28;20050;-50
2022/09/23 10:32:32;;;;;;;5.05;1.77;;;17.50;52.00;;;;;;4983831;28;20057;-49
2022/09/23 10:35:12;;;;;;;1.88;1.40;;;17.60;51.90;;;;;;4981800;28;20050;-49
2022/09/23 10:37:41;;;;;;;2.90;1.20;;;17.60;51.80;;;;;;4984027;28;20054;-54
2022/09/23 10:49:22;;;;;;;2.25;1.20;;;17.80;51.80;;;;;;4989105;28;20061;-49
2022/09/23 10:52:01;;;;;;;2.67;1.33;;;17.90;51.40;;;;;;4979919;28;20050;-45
2022/09/23 10:54:40;;;;;;;2.60;1.40;;;18.00;51.10;;;;;;4977799;28;20495;-47
2022/09/23 11:00:04;;;;;;;4.85;1.45;;;18.10;51.00;;;;;;4987579;28;20402;-47
2022/09/23 11:02:53;;;;;;;1.92;1.30;;;18.20;50.80;;;;;;4983724;28;20050;-52
2022/09/23 11:05:34;;;;;;;1.98;1.33;;;18.20;50.90;;;;;;4982435;28;20062;-49
2022/09/23 11:08:13;;;;;;;2.17;1.25;;;18.30;50.20;;;;;;4984162;28;20054;-47
2022/09/23 11:11:07;;;;;;;2.38;1.40;;;18.30;50.30;;;;;;4983674;28;20058;-46
2022/09/23 11:13:54;;;;;;;3.95;1.33;;;18.40;50.10;;;;;;4981407;28;20473;-49
2022/09/23 11:16:36;;;;;;;2.70;1.60;;;18.50;50.60;;;;;;4982261;28;20054;-49
2022/09/23 11:19:24;;;;;;;3.22;1.35;;;18.50;50.10;;;;;;4982242;28;20054;-48
2022/09/23 11:22:14;;;;;;;1.70;1.10;;;18.60;49.80;;;;;;4983025;28;20062;-49
2022/09/23 11:25:06;;;;;;;4.25;1.35;;;18.60;49.60;;;;;;4982901;28;20058;-46
2022/09/23 11:27:46;;;;;;;4.07;0.98;;;18.70;49.60;;;;;;4983200;28;20069;-48
2022/09/23 11:30:18;;;;;;;4.47;1.35;;;18.70;49.20;;;;;;4981902;28;20058;-50
2022/09/23 11:33:12;;;;;;;1.58;1.20;;;18.80;49.00;;;;;;4983170;28;20061;-50
2022/09/23 11:35:46;;;;;;;2.60;1.20;;;18.80;48.60;;;;;;4982326;28;20061;-49
2022/09/23 11:38:24;;;;;;;2.90;1.00;;;18.80;48.60;;;;;;4983669;28;20469;-49
2022/09/23 11:40:55;;;;;;;3.55;1.20;;;18.80;48.50;;;;;;4979525;28;20055;-49
2022/09/23 11:43:27;;;;;;;2.90;1.10;;;18.90;48.50;;;;;;4982016;28;20058;-50
2022/09/23 11:45:58;;;;;;;4.72;1.13;;;18.90;48.50;;;;;;4980397;28;20421;-49
2022/09/23 11:48:32;;;;;;;2.30;1.20;;;18.90;48.30;;;;;;4982235;28;20417;-46
2022/09/23 11:51:03;;;;;;;3.40;1.00;;;19.00;47.90;;;;;;4984075;28;20073;-46
2022/09/23 11:53:40;;;;;;;2.05;1.20;;;19.00;47.80;;;;;;4983444;28;20064;-51
2022/09/23 11:56:14;;;;;;;3.20;1.30;;;19.00;47.70;;;;;;4982119;28;20062;-48
2022/09/23 11:58:45;;;;;;;;;;;19.10;47.70;;;;;;4980790;28;20495;-46
2022/09/23 12:01:17;;;;;;;2.38;1.30;;;19.20;48.00;;;;;;4982967;28;19933;-48
2022/09/23 12:03:50;;;;;;;2.25;1.15;;;19.20;47.50;;;;;;4982291;28;20050;-46
2022/09/23 12:06:21;;;;;;;7.30;1.85;;;19.20;47.30;;;;;;4986096;28;20054;-49
2022/09/23 12:08:56;;;;;;;2.13;1.15;;;19.20;47.30;;;;;;4984680;28;20058;-51
2022/09/23 12:11:30;;;;;;;2.53;1.17;;;19.30;47.20;;;;;;4985805;28;20058;-48
2022/09/23 12:14:03;;;;;;;;;;;19.30;47.90;;;;;;4986530;28;20062;-48
2022/09/23 12:16:57;;;;;;;1.42;1.10;;;19.40;47.90;;;;;;4985249;28;19922;-49
2022/09/23 12:19:33;;;;;;;;;;;19.40;47.10;;;;;;4985796;28;20065;-48
2022/09/23 12:22:18;;;;;;;2.47;1.25;;;19.50;47.60;;;;;;4986894;28;19922;-47
2022/09/23 12:24:54;;;;;;;2.30;1.40;;;19.50;46.80;;;;;;4986063;28;20391;-49
2022/09/23 12:27:32;;;;;;;2.97;1.15;;;19.50;46.90;;;;;;4985019;28;20046;-50
2022/09/23 12:30:02;;;;;;;4.40;1.35;;;19.50;47.00;;;;;;4984331;28;20069;-48
2022/09/23 12:32:31;;;;;;;5.60;1.02;;;19.60;46.90;;;;;;4983301;28;20062;-44
2022/09/23 12:34:59;;;;;;;1.02;0.90;;;19.60;47.10;;;;;;4984430;28;20054;-53
2022/09/23 12:37:29;;;;;;;3.00;1.17;;;19.60;46.90;;;;;;4981564;28;20069;-48
2022/09/23 12:40:06;;;;;;;1.25;0.95;;;19.60;46.90;;;;;;4984341;28;20054;-47
2022/09/23 12:42:33;;;;;;;2.50;1.10;;;19.70;46.80;;;;;;4984760;28;20058;-50
2022/09/23 12:45:18;;;;;;;3.25;1.00;;;19.70;46.90;;;;;;4984074;28;20050;-47
2022/09/23 12:47:45;;;;;;;1.40;1.05;;;19.70;46.90;;;;;;4986850;28;20054;-49
2022/09/23 12:50:47;;;;;;;1.73;1.10;;;19.80;47.10;;;;;;4983303;28;20081;-47
2022/09/23 12:53:52;;;;;;;1.42;1.05;;;19.80;46.70;;;;;;4986514;28;20499;-45
2022/09/23 12:56:26;;;;;;;3.53;1.33;;;19.80;46.60;;;;;;4984026;28;20054;-47
2022/09/23 12:59:00;;;;;;;;;;;19.90;46.80;;;;;;4982074;28;20061;-54
2022/09/23 13:01:27;;;;;;;2.97;1.25;;;19.90;47.10;;;;;;4983547;28;19926;-50
2022/09/23 13:06:42;;;;;;;2.63;1.10;;;20.00;46.50;;;;;;4986429;28;20068;-49
2022/09/23 13:09:15;;;;;;;6.38;1.10;;;20.00;46.40;;;;;;4975986;28;20062;-52
2022/09/23 13:11:46;;;;;;;1.33;1.10;;;20.00;46.20;;;;;;4983672;28;20081;-51
2022/09/23 13:14:20;;;;;;;1.98;1.20;;;20.00;46.30;;;;;;4982306;28;20054;-51
2022/09/23 13:16:47;;;;;;;2.67;1.20;;;20.00;46.20;;;;;;4981952;28;20054;-47
2022/09/23 13:19:44;;;;;;;1.20;1.10;;;20.00;46.20;;;;;;4983545;28;20080;-50
2022/09/23 13:22:12;;;;;;;3.28;1.30;;;20.00;46.70;;;;;;4986304;28;21531;-49
2022/09/23 13:24:52;;;;;;;3.25;1.17;;;20.00;46.40;;;;;;4986073;28;20057;-44
2022/09/23 13:27:31;;;;;;;2.40;1.20;;;20.00;46.20;;;;;;4982313;28;20058;-48
2022/09/23 13:30:02;;;;;;;5.88;1.00;;;20.00;45.90;;;;;;4976497;28;20062;-49
2022/09/23 13:32:32;;;;;;;4.07;1.40;;;20.10;45.70;;;;;;4985325;28;20049;-49
2022/09/23 13:35:03;;;;;;;1.80;1.23;;;20.00;45.90;;;;;;4985351;28;20054;-46
2022/09/23 13:37:40;;;;;;;1.55;1.17;;;20.10;45.70;;;;;;4969774;28;20054;-50